Time;durP1;ratioP1;P1;durP2;ratioP2;P2;SDS_P1;SDS_P2;PMS_P1;PMS_P2;Temp;Humidity;BMP_temperature;BMP_pressure;BME280_temperature;BME280_humidity;BME280_pressure;Samples;Min_cycle;Max_cycle;Signal;HPM_P1;HPM_P2
2023/02/18 00:01:58;;;;;;;;;125.50;93.00;;;;;;;;5059745;28;51224;-53
2023/02/18 00:04:43;;;;;;;;;147.75;100.25;;;;;;;;5061316;28;51034;-53
2023/02/18 00:07:27;;;;;;;;;141.75;94.00;;;;;;;;5060684;28;51465;-54
2023/02/18 00:10:13;;;;;;;;;137.50;96.00;;;;;;;;5060503;28;51069;-50
2023/02/18 00:12:57;;;;;;;;;130.00;95.25;;;;;;;;5060491;28;51588;-55
2023/02/18 00:15:42;;;;;;;;;120.75;90.50;;;;;;;;5061012;28;50987;-50
2023/02/18 00:18:26;;;;;;;;;129.00;92.50;;;;;;;;5060462;28;51350;-51
2023/02/18 00:21:11;;;;;;;;;126.00;92.75;;;;;;;;5058470;28;51207;-50
2023/02/18 00:23:55;;;;;;;;;135.50;96.50;;;;;;;;5056766;28;51469;-51
2023/02/18 00:26:39;;;;;;;;;140.50;105.00;;;;;;;;5046223;28;51106;-51
2023/02/18 00:29:23;;;;;;;;;147.00;103.25;;;;;;;;5050225;28;51053;-50
2023/02/18 00:32:08;;;;;;;;;142.50;100.25;;;;;;;;5059991;28;51440;-50
2023/02/18 00:34:52;;;;;;;;;119.50;86.50;;;;;;;;5060415;28;51181;-53
2023/02/18 00:37:37;;;;;;;;;134.25;99.00;;;;;;;;5060312;28;51546;-52
2023/02/18 00:40:21;;;;;;;;;138.75;99.25;;;;;;;;5060201;28;51164;-51
2023/02/18 00:43:06;;;;;;;;;137.50;95.75;;;;;;;;5059639;28;51442;-52
2023/02/18 00:45:50;;;;;;;;;138.25;95.50;;;;;;;;5060334;28;51154;-52
2023/02/18 00:48:35;;;;;;;;;135.00;102.25;;;;;;;;5059145;28;51499;-53
2023/02/18 00:51:19;;;;;;;;;125.25;95.50;;;;;;;;5059618;28;51237;-51
2023/02/18 00:54:03;;;;;;;;;129.50;98.75;;;;;;;;5042629;28;51126;-49
2023/02/18 00:56:48;;;;;;;;;130.50;94.00;;;;;;;;5055413;28;51367;-51
2023/02/18 00:59:32;;;;;;;;;129.00;86.50;;;;;;;;5051016;28;51062;-55
2023/02/18 01:02:16;;;;;;;;;136.25;96.00;;;;;;;;5041263;28;51032;-55
2023/02/18 01:05:01;;;;;;;;;131.25;99.00;;;;;;;;5044894;28;50995;-52
2023/02/18 01:07:46;;;;;;;;;129.00;94.25;;;;;;;;5059420;28;51421;-55
2023/02/18 01:10:30;;;;;;;;;137.50;87.00;;;;;;;;5059595;28;51050;-55
2023/02/18 01:13:15;;;;;;;;;118.25;82.00;;;;;;;;5043206;28;52179;-52
2023/02/18 01:16:00;;;;;;;;;129.25;86.75;;;;;;;;5039523;28;51108;-49
2023/02/18 01:18:44;;;;;;;;;122.25;86.25;;;;;;;;5058854;28;51037;-49
2023/02/18 01:21:28;;;;;;;;;99.75;80.00;;;;;;;;5059253;28;51208;-52
2023/02/18 01:24:13;;;;;;;;;132.00;90.50;;;;;;;;5045099;28;52359;-57
2023/02/18 01:26:57;;;;;;;;;129.50;94.00;;;;;;;;5053033;28;51253;-49
2023/02/18 01:29:41;;;;;;;;;118.50;85.25;;;;;;;;5044676;28;51136;-52
2023/02/18 01:32:26;;;;;;;;;126.25;86.50;;;;;;;;5038978;28;51185;-51
2023/02/18 01:35:12;;;;;;;;;118.75;86.25;;;;;;;;5039377;28;51302;-50
2023/02/18 01:37:56;;;;;;;;;125.75;88.00;;;;;;;;5052426;28;51114;-52
2023/02/18 01:40:46;;;;;;;;;119.25;88.00;;;;;;;;5058839;28;51163;-53
2023/02/18 01:43:31;;;;;;;;;120.50;87.50;;;;;;;;5059406;28;51320;-53
2023/02/18 01:46:19;;;;;;;;;115.25;90.75;;;;;;;;5059371;28;51228;-52
2023/02/18 01:49:04;;;;;;;;;125.75;85.75;;;;;;;;5059378;28;51104;-50
2023/02/18 01:51:53;;;;;;;;;121.25;88.50;;;;;;;;5058996;28;51656;-51
2023/02/18 01:54:40;;;;;;;;;92.50;48.25;;;;;;;;5056307;28;51088;-51
2023/02/18 01:57:34;;;;;;;;;134.25;98.25;;;;;;;;5062449;28;51070;-52
2023/02/18 02:00:21;;;;;;;;;147.00;111.00;;;;;;;;5063228;28;51083;-50
2023/02/18 02:03:06;;;;;;;;;114.75;90.75;;;;;;;;5063396;28;51389;-54
2023/02/18 02:08:35;;;;;;;;;114.25;86.50;;;;;;;;5000907;28;51130;-50
2023/02/18 02:45:46;;;;;;;;;129.00;87.75;;;;;;;;4815436;29;51119;-53
2023/02/18 02:48:44;;;;;;;;;119.75;85.75;;;;;;;;4828512;29;51175;-50
2023/02/18 02:52:01;;;;;;;;;112.00;85.75;;;;;;;;4804997;29;51248;-50
2023/02/18 02:54:44;;;;;;;;;116.25;80.75;;;;;;;;4800020;29;51270;-52
2023/02/18 02:57:29;;;;;;;;;115.25;86.75;;;;;;;;4834284;29;51260;-55
2023/02/18 03:00:14;;;;;;;;;115.75;80.50;;;;;;;;4899696;28;51182;-53
2023/02/18 03:03:02;;;;;;;;;122.00;76.25;;;;;;;;4965392;28;51137;-51
2023/02/18 03:05:49;;;;;;;;;124.75;80.00;;;;;;;;5030018;28;51191;-52
2023/02/18 03:08:39;;;;;;;;;102.25;71.75;;;;;;;;5062170;28;51122;-53
2023/02/18 03:11:25;;;;;;;;;112.25;78.00;;;;;;;;5061992;28;51079;-52
2023/02/18 03:14:15;;;;;;;;;122.75;87.50;;;;;;;;5062001;28;51074;-51
2023/02/18 03:17:02;;;;;;;;;124.25;90.00;;;;;;;;5061729;28;51370;-53
2023/02/18 03:19:51;;;;;;;;;123.25;87.00;;;;;;;;5061871;28;51128;-54
2023/02/18 03:22:43;;;;;;;;;112.00;82.00;;;;;;;;5061579;28;51099;-49
2023/02/18 03:25:27;;;;;;;;;112.50;81.00;;;;;;;;5053105;28;51159;-51
2023/02/18 03:28:14;;;;;;;;;113.25;76.25;;;;;;;;5041507;28;51160;-52
2023/02/18 03:31:01;;;;;;;;;90.50;55.75;;;;;;;;5041443;28;51604;-52
2023/02/18 03:33:50;;;;;;;;;107.25;80.75;;;;;;;;5056225;28;51001;-53
2023/02/18 03:36:34;;;;;;;;;124.00;84.25;;;;;;;;5061340;28;51178;-49
2023/02/18 03:39:20;;;;;;;;;104.50;78.50;;;;;;;;5061492;28;51263;-49
2023/02/18 03:42:06;;;;;;;;;98.75;72.75;;;;;;;;5061070;28;51094;-55
2023/02/18 03:44:50;;;;;;;;;119.75;85.50;;;;;;;;5061255;28;51067;-52
2023/02/18 03:47:35;;;;;;;;;96.00;73.25;;;;;;;;5061316;28;51585;-50
2023/02/18 03:50:19;;;;;;;;;114.00;81.25;;;;;;;;5058714;28;52314;-52
2023/02/18 03:53:03;;;;;;;;;101.00;75.25;;;;;;;;5057962;28;51174;-50
2023/02/18 03:55:48;;;;;;;;;106.25;78.75;;;;;;;;5057277;28;51133;-53
2023/02/18 03:58:32;;;;;;;;;109.75;74.50;;;;;;;;5047099;28;51051;-51
2023/02/18 04:01:17;;;;;;;;;120.25;81.00;;;;;;;;5040494;28;51121;-55
2023/02/18 04:04:02;;;;;;;;;107.25;75.00;;;;;;;;5061025;28;51101;-52
2023/02/18 04:06:46;;;;;;;;;111.00;76.25;;;;;;;;5060732;28;51408;-52
2023/02/18 04:09:30;;;;;;;;;105.50;78.75;;;;;;;;5060694;28;51178;-52
2023/02/18 04:12:15;;;;;;;;;111.00;81.50;;;;;;;;5043726;28;51149;-52
2023/02/18 04:14:59;;;;;;;;;119.50;80.75;;;;;;;;5055373;28;51086;-53
2023/02/18 04:17:44;;;;;;;;;90.25;71.00;;;;;;;;5060284;28;51115;-52
2023/02/18 04:20:28;;;;;;;;;125.50;81.50;;;;;;;;5051998;28;51082;-54
2023/02/18 04:23:13;;;;;;;;;120.00;84.75;;;;;;;;5060337;28;51129;-55
2023/02/18 04:25:57;;;;;;;;;113.25;79.00;;;;;;;;5059570;28;51047;-54
2023/02/18 04:28:42;;;;;;;;;110.75;85.75;;;;;;;;5060365;28;51148;-51
2023/02/18 04:31:26;;;;;;;;;116.00;78.75;;;;;;;;5059981;28;51460;-53
2023/02/18 04:34:10;;;;;;;;;99.00;77.00;;;;;;;;5060411;28;50964;-54
2023/02/18 04:36:55;;;;;;;;;121.75;80.50;;;;;;;;5060279;28;51133;-51
2023/02/18 04:39:39;;;;;;;;;108.50;74.75;;;;;;;;5049230;28;51140;-51
2023/02/18 04:42:23;;;;;;;;;115.25;79.00;;;;;;;;5040161;28;51197;-50
2023/02/18 04:45:08;;;;;;;;;114.50;85.00;;;;;;;;5039910;28;51086;-50
2023/02/18 04:47:52;;;;;;;;;109.25;85.25;;;;;;;;5040008;28;51476;-54
2023/02/18 04:50:38;;;;;;;;;110.50;83.75;;;;;;;;5039644;28;51152;-54
2023/02/18 04:53:22;;;;;;;;;116.25;83.50;;;;;;;;5040108;28;51533;-51
2023/02/18 04:56:06;;;;;;;;;111.25;84.00;;;;;;;;5039963;28;51200;-53
2023/02/18 04:58:50;;;;;;;;;96.25;75.00;;;;;;;;5039432;28;51327;-51
2023/02/18 05:01:35;;;;;;;;;115.00;83.00;;;;;;;;5039426;28;51004;-54
2023/02/18 05:04:20;;;;;;;;;106.00;67.75;;;;;;;;5039459;28;51094;-52
2023/02/18 05:07:04;;;;;;;;;118.25;87.75;;;;;;;;5039793;28;51189;-52
2023/02/18 05:09:49;;;;;;;;;123.50;89.00;;;;;;;;5039104;28;51026;-50
2023/02/18 05:12:33;;;;;;;;;129.00;97.75;;;;;;;;5056670;28;51115;-52
2023/02/18 05:15:17;;;;;;;;;149.00;112.25;;;;;;;;5059560;28;51156;-51
2023/02/18 05:18:02;;;;;;;;;148.75;109.75;;;;;;;;5059801;28;51156;-52
2023/02/18 05:20:46;;;;;;;;;146.50;112.25;;;;;;;;5040163;28;51129;-45
2023/02/18 05:23:31;;;;;;;;;144.75;109.00;;;;;;;;5055500;28;51242;-44
2023/02/18 05:26:15;;;;;;;;;142.00;108.50;;;;;;;;5058922;28;51130;-46
2023/02/18 05:28:59;;;;;;;;;136.50;112.75;;;;;;;;5058187;28;51180;-45
2023/02/18 05:31:44;;;;;;;;;145.75;111.75;;;;;;;;5059600;28;51118;-46
2023/02/18 05:34:28;;;;;;;;;154.00;113.25;;;;;;;;5059395;28;51536;-44
2023/02/18 05:37:13;;;;;;;;;145.75;113.75;;;;;;;;5059449;28;51339;-44
2023/02/18 05:39:57;;;;;;;;;146.50;107.75;;;;;;;;5059115;28;51243;-46
2023/02/18 05:42:42;;;;;;;;;146.25;114.50;;;;;;;;5058686;28;51076;-47
2023/02/18 05:45:26;;;;;;;;;147.00;114.50;;;;;;;;5039507;28;51169;-45
2023/02/18 05:48:10;;;;;;;;;133.75;106.50;;;;;;;;5058378;28;51029;-45
2023/02/18 05:50:55;;;;;;;;;145.75;114.25;;;;;;;;5059151;28;51490;-45
2023/02/18 05:53:40;;;;;;;;;160.50;115.75;;;;;;;;5046058;28;51203;-43
2023/02/18 05:56:24;;;;;;;;;133.50;102.75;;;;;;;;5058630;28;51128;-46
2023/02/18 05:59:08;;;;;;;;;147.50;110.25;;;;;;;;5043891;28;51556;-46
2023/02/18 06:01:53;;;;;;;;;143.50;101.00;;;;;;;;5059168;28;51595;-46
2023/02/18 06:04:38;;;;;;;;;152.00;106.75;;;;;;;;5059307;28;51155;-47
2023/02/18 06:07:23;;;;;;;;;143.00;104.00;;;;;;;;5053296;28;51246;-48
2023/02/18 06:10:07;;;;;;;;;127.00;94.75;;;;;;;;5058786;28;51996;-45
2023/02/18 06:12:51;;;;;;;;;151.25;112.25;;;;;;;;5059143;28;51216;-45
2023/02/18 06:15:37;;;;;;;;;133.25;101.00;;;;;;;;5059169;28;51576;-46
2023/02/18 06:18:21;;;;;;;;;140.75;107.25;;;;;;;;5039508;28;51582;-46
2023/02/18 06:21:05;;;;;;;;;146.25;103.50;;;;;;;;5039150;28;51007;-46
2023/02/18 06:23:50;;;;;;;;;157.25;116.75;;;;;;;;5054890;28;51058;-46
2023/02/18 06:26:34;;;;;;;;;170.75;118.25;;;;;;;;5059173;28;51279;-45
2023/02/18 06:29:18;;;;;;;;;148.00;115.50;;;;;;;;5038198;28;51179;-45
2023/02/18 06:32:03;;;;;;;;;157.75;114.00;;;;;;;;5039389;28;51545;-46
2023/02/18 06:34:48;;;;;;;;;143.25;111.75;;;;;;;;5053871;28;51394;-45
2023/02/18 06:37:32;;;;;;;;;164.50;117.00;;;;;;;;5054797;28;51103;-46
2023/02/18 06:40:17;;;;;;;;;195.25;137.75;;;;;;;;5052077;28;51393;-45
2023/02/18 06:43:01;;;;;;;;;172.50;132.75;;;;;;;;5061650;28;51065;-47
2023/02/18 06:45:45;;;;;;;;;168.50;131.25;;;;;;;;5062760;28;51188;-44
2023/02/18 06:48:31;;;;;;;;;168.00;129.25;;;;;;;;5062353;28;51205;-46
2023/02/18 06:51:15;;;;;;;;;185.50;134.75;;;;;;;;5053705;28;51275;-47
2023/02/18 06:53:59;;;;;;;;;174.25;134.50;;;;;;;;5049226;28;51157;-46
2023/02/18 06:56:44;;;;;;;;;179.50;134.00;;;;;;;;5052181;28;51065;-44
2023/02/18 06:59:28;;;;;;;;;198.75;141.00;;;;;;;;5046594;28;51519;-47
2023/02/18 07:02:12;;;;;;;;;216.50;168.50;;;;;;;;5054192;28;51054;-45
2023/02/18 07:04:57;;;;;;;;;179.50;132.75;;;;;;;;5042086;28;51046;-45
2023/02/18 07:07:41;;;;;;;;;172.00;133.50;;;;;;;;5061754;28;51310;-45
2023/02/18 07:10:25;;;;;;;;;190.50;138.75;;;;;;;;5062227;28;51142;-46
2023/02/18 07:13:10;;;;;;;;;185.25;142.75;;;;;;;;5045232;28;51122;-46
2023/02/18 07:15:54;;;;;;;;;182.25;127.50;;;;;;;;5061832;28;51110;-46
2023/02/18 07:18:38;;;;;;;;;178.00;135.50;;;;;;;;5061646;28;51185;-48
2023/02/18 07:21:23;;;;;;;;;124.75;93.75;;;;;;;;5061692;28;51180;-45
2023/02/18 07:24:07;;;;;;;;;160.75;122.75;;;;;;;;5045943;28;51171;-47
2023/02/18 07:26:52;;;;;;;;;159.50;116.25;;;;;;;;5041935;28;51483;-46
2023/02/18 07:29:36;;;;;;;;;155.00;117.75;;;;;;;;5045369;28;51626;-46
2023/02/18 07:32:20;;;;;;;;;167.75;123.25;;;;;;;;5061417;28;51129;-45
2023/02/18 07:35:05;;;;;;;;;155.75;116.25;;;;;;;;5062089;28;51152;-46
2023/02/18 07:37:49;;;;;;;;;161.00;114.00;;;;;;;;5061135;28;51436;-46
2023/02/18 07:40:33;;;;;;;;;152.50;117.75;;;;;;;;5061527;28;51475;-45
2023/02/18 07:43:18;;;;;;;;;158.25;114.75;;;;;;;;5044261;28;51106;-44
2023/02/18 07:46:04;;;;;;;;;162.25;124.75;;;;;;;;5061401;28;51065;-45
2023/02/18 07:48:49;;;;;;;;;155.00;117.50;;;;;;;;5040961;28;51466;-47
2023/02/18 07:51:33;;;;;;;;;151.75;108.00;;;;;;;;5040039;28;51152;-45
2023/02/18 07:54:17;;;;;;;;;164.25;123.00;;;;;;;;5056515;28;51278;-46
2023/02/18 07:57:02;;;;;;;;;166.25;121.25;;;;;;;;5040930;28;51103;-48
2023/02/18 07:59:46;;;;;;;;;171.25;122.75;;;;;;;;5041277;28;51150;-45
2023/02/18 08:02:30;;;;;;;;;166.00;122.75;;;;;;;;5055036;28;51209;-45
2023/02/18 08:19:44;;;;;;;;;149.33;119.67;;;;;;;;4226659;32;2347784;-46
2023/02/18 08:22:29;;;;;;;;;156.25;117.25;;;;;;;;5027935;28;51354;-45
2023/02/18 08:25:13;;;;;;;;;153.75;112.75;;;;;;;;5029898;28;51304;-44
2023/02/18 08:27:58;;;;;;;;;158.50;117.50;;;;;;;;5035044;28;51180;-45
2023/02/18 08:30:46;;;;;;;;;147.75;112.25;;;;;;;;5037709;28;51497;-46
2023/02/18 08:33:31;;;;;;;;;145.50;115.75;;;;;;;;5035522;28;51092;-45
2023/02/18 08:36:15;;;;;;;;;139.75;108.50;;;;;;;;5035925;28;51147;-46
2023/02/18 08:39:00;;;;;;;;;155.25;120.75;;;;;;;;5033420;28;51444;-45
2023/02/18 08:41:44;;;;;;;;;136.50;96.50;;;;;;;;5033808;28;51421;-44
2023/02/18 08:44:29;;;;;;;;;120.25;99.50;;;;;;;;5033205;28;51290;-44
2023/02/18 08:47:13;;;;;;;;;145.25;113.25;;;;;;;;5033573;28;51320;-44
2023/02/18 08:49:58;;;;;;;;;142.00;111.25;;;;;;;;5032792;28;51181;-46
2023/02/18 08:52:49;;;;;;;;;149.25;111.50;;;;;;;;4956404;28;51519;-45
2023/02/18 08:55:34;;;;;;;;;114.00;87.75;;;;;;;;4954171;28;51659;-45
2023/02/18 08:58:18;;;;;;;;;138.25;101.25;;;;;;;;4952079;28;51555;-44
2023/02/18 09:01:07;;;;;;;;;127.25;97.00;;;;;;;;4951701;28;51122;-44
2023/02/18 09:03:51;;;;;;;;;121.75;93.00;;;;;;;;4952014;28;51467;-44
2023/02/18 09:06:38;;;;;;;;;115.00;85.50;;;;;;;;4952527;28;51596;-44
2023/02/18 09:09:23;;;;;;;;;105.00;80.25;;;;;;;;4938878;28;51260;-46
2023/02/18 09:12:07;;;;;;;;;136.50;90.00;;;;;;;;4951719;28;51771;-46
2023/02/18 09:14:51;;;;;;;;;113.00;86.50;;;;;;;;4951779;28;51172;-46
2023/02/18 09:17:37;;;;;;;;;116.00;77.75;;;;;;;;4952826;28;51702;-43
2023/02/18 09:20:22;;;;;;;;;105.25;75.75;;;;;;;;4979175;28;51202;-45
2023/02/18 09:23:07;;;;;;;;;99.75;73.75;;;;;;;;4976892;28;51269;-44
2023/02/18 09:25:51;;;;;;;;;124.00;76.75;;;;;;;;4975943;28;51263;-44
2023/02/18 09:28:36;;;;;;;;;123.25;81.00;;;;;;;;4978852;28;51491;-47
2023/02/18 09:31:21;;;;;;;;;92.75;68.50;;;;;;;;5038887;28;51189;-46
2023/02/18 09:34:06;;;;;;;;;108.50;71.50;;;;;;;;5038809;28;51149;-46
2023/02/18 09:36:50;;;;;;;;;99.50;72.50;;;;;;;;5039442;28;51175;-47
2023/02/18 09:39:35;;;;;;;;;99.75;78.00;;;;;;;;5039408;28;52005;-44
2023/02/18 09:42:22;;;;;;;;;97.00;74.75;;;;;;;;5038242;28;51186;-44
2023/02/18 09:45:10;;;;;;;;;102.75;77.75;;;;;;;;5039143;28;51655;-45
2023/02/18 09:47:54;;;;;;;;;110.75;79.00;;;;;;;;5039359;28;51091;-45
2023/02/18 09:50:39;;;;;;;;;97.25;70.50;;;;;;;;5037195;28;51100;-43
2023/02/18 09:53:24;;;;;;;;;88.00;64.00;;;;;;;;5037967;28;51523;-49
2023/02/18 09:56:11;;;;;;;;;106.75;77.75;;;;;;;;5039031;28;51525;-44
2023/02/18 09:58:57;;;;;;;;;102.50;74.75;;;;;;;;5038712;28;51127;-48
2023/02/18 10:01:42;;;;;;;;;107.00;75.75;;;;;;;;5038964;28;51104;-44
2023/02/18 10:04:30;;;;;;;;;114.75;85.75;;;;;;;;5038046;28;51468;-47
2023/02/18 10:07:20;;;;;;;;;101.00;74.75;;;;;;;;5038745;28;51171;-45
2023/02/18 10:10:15;;;;;;;;;114.25;73.25;;;;;;;;5038517;28;51400;-44
2023/02/18 10:13:00;;;;;;;;;104.75;75.00;;;;;;;;5038369;28;51106;-47
2023/02/18 10:15:45;;;;;;;;;93.50;69.75;;;;;;;;5038239;28;51130;-49
2023/02/18 10:18:44;;;;;;;;;93.00;71.75;;;;;;;;5038713;28;51513;-46
2023/02/18 10:21:30;;;;;;;;;99.25;65.50;;;;;;;;5036132;28;51111;-45
2023/02/18 10:24:34;;;;;;;;;105.75;76.75;;;;;;;;5037759;28;51145;-45
2023/02/18 10:27:26;;;;;;;;;102.00;76.00;;;;;;;;5038400;28;51135;-45
2023/02/18 10:30:22;;;;;;;;;104.75;75.00;;;;;;;;5038001;28;51486;-46
2023/02/18 10:33:16;;;;;;;;;105.25;72.75;;;;;;;;5038112;28;51106;-46
2023/02/18 10:36:15;;;;;;;;;104.75;70.00;;;;;;;;5037714;28;51189;-48
2023/02/18 10:39:06;;;;;;;;;115.00;75.50;;;;;;;;5037983;28;51160;-45
2023/02/18 10:41:53;;;;;;;;;71.75;45.75;;;;;;;;5038363;28;51039;-47
2023/02/18 10:44:43;;;;;;;;;109.25;71.75;;;;;;;;5036496;28;51064;-45
2023/02/18 10:47:46;;;;;;;;;108.00;71.00;;;;;;;;5037335;28;51608;-53
2023/02/18 10:50:41;;;;;;;;;91.75;69.00;;;;;;;;5037796;28;51120;-45
2023/02/18 10:53:25;;;;;;;;;100.75;65.00;;;;;;;;5037576;28;51023;-46
2023/02/18 10:56:31;;;;;;;;;116.75;70.75;;;;;;;;5035766;28;51314;-45
2023/02/18 10:59:18;;;;;;;;;90.50;67.75;;;;;;;;5037742;28;51115;-47
2023/02/18 11:02:14;;;;;;;;;101.00;76.75;;;;;;;;5038757;28;51615;-46
2023/02/18 11:05:05;;;;;;;;;108.25;77.25;;;;;;;;5037071;28;51135;-48
2023/02/18 11:07:50;;;;;;;;;111.25;76.00;;;;;;;;5037089;28;51161;-47
2023/02/18 11:10:38;;;;;;;;;105.00;65.75;;;;;;;;5037018;28;51553;-55
2023/02/18 11:13:27;;;;;;;;;102.50;65.50;;;;;;;;5037187;28;51210;-45
2023/02/18 11:16:11;;;;;;;;;111.50;71.75;;;;;;;;5035217;28;51158;-45
2023/02/18 11:18:57;;;;;;;;;101.75;75.75;;;;;;;;5035999;28;51104;-46
2023/02/18 11:21:41;;;;;;;;;73.50;48.75;;;;;;;;5037361;28;51092;-46
2023/02/18 11:24:25;;;;;;;;;104.25;70.75;;;;;;;;5037010;28;52041;-47
2023/02/18 11:27:13;;;;;;;;;101.00;67.25;;;;;;;;5036503;28;51274;-46
2023/02/18 11:30:04;;;;;;;;;88.50;63.00;;;;;;;;5036229;28;51171;-48
2023/02/18 11:32:54;;;;;;;;;105.50;69.00;;;;;;;;5035962;28;51122;-46
2023/02/18 11:35:38;;;;;;;;;76.25;52.50;;;;;;;;5035146;28;51548;-49
2023/02/18 11:38:25;;;;;;;;;93.75;63.75;;;;;;;;5033838;28;51219;-46
2023/02/18 11:41:12;;;;;;;;;100.75;69.50;;;;;;;;5035978;28;51146;-46
2023/02/18 11:43:57;;;;;;;;;103.50;70.25;;;;;;;;5036230;28;51132;-47
2023/02/18 11:46:54;;;;;;;;;105.75;74.25;;;;;;;;5036830;28;51526;-44
2023/02/18 11:49:40;;;;;;;;;113.50;78.75;;;;;;;;5035964;28;51132;-46
2023/02/18 11:52:39;;;;;;;;;99.50;71.25;;;;;;;;5036732;28;51712;-45
2023/02/18 11:55:25;;;;;;;;;83.50;68.25;;;;;;;;5036680;28;51213;-46
2023/02/18 11:58:11;;;;;;;;;113.50;83.75;;;;;;;;5036009;28;51135;-43
2023/02/18 12:00:58;;;;;;;;;136.75;93.75;;;;;;;;5036245;28;51103;-46
2023/02/18 12:03:53;;;;;;;;;123.50;94.75;;;;;;;;5036726;28;51484;-46
2023/02/18 12:06:43;;;;;;;;;110.50;86.00;;;;;;;;5036492;28;51204;-46
2023/02/18 12:09:30;;;;;;;;;124.25;92.75;;;;;;;;5036162;28;51134;-45
2023/02/18 12:12:26;;;;;;;;;129.00;94.00;;;;;;;;5035073;28;51122;-45
2023/02/18 12:15:15;;;;;;;;;111.75;85.50;;;;;;;;5036248;28;51332;-47
2023/02/18 12:18:09;;;;;;;;;102.75;83.75;;;;;;;;5036374;28;51596;-46
2023/02/18 12:21:12;;;;;;;;;97.00;70.25;;;;;;;;5035738;28;51130;-46
2023/02/18 12:24:09;;;;;;;;;107.00;77.50;;;;;;;;5035889;28;51111;-45
2023/02/18 12:27:04;;;;;;;;;105.25;80.00;;;;;;;;5036257;28;51186;-45
2023/02/18 12:30:07;;;;;;;;;102.50;72.75;;;;;;;;5036522;28;52023;-46
2023/02/18 12:32:55;;;;;;;;;92.50;70.00;;;;;;;;5034807;28;51158;-44
2023/02/18 12:35:48;;;;;;;;;78.25;67.25;;;;;;;;5036304;28;51427;-46
2023/02/18 12:38:44;;;;;;;;;104.25;79.50;;;;;;;;5036124;28;52230;-45
2023/02/18 12:41:44;;;;;;;;;107.00;73.50;;;;;;;;5035663;28;51417;-46
2023/02/18 12:44:42;;;;;;;;;106.75;78.50;;;;;;;;5035292;28;51696;-44
2023/02/18 12:47:45;;;;;;;;;111.50;74.75;;;;;;;;5035476;28;51208;-45
2023/02/18 12:50:41;;;;;;;;;115.75;81.75;;;;;;;;5035113;28;51210;-45
2023/02/18 12:53:52;;;;;;;;;110.75;79.00;;;;;;;;5035583;28;51342;-45
2023/02/18 12:56:36;;;;;;;;;117.25;80.00;;;;;;;;5040193;28;51126;-45
2023/02/18 12:59:49;;;;;;;;;115.50;84.00;;;;;;;;5039725;28;52125;-47
2023/02/18 13:02:45;;;;;;;;;96.00;71.75;;;;;;;;4972001;28;51230;-46
2023/02/18 13:05:37;;;;;;;;;118.00;86.25;;;;;;;;5038925;28;51659;-45
2023/02/18 13:08:40;;;;;;;;;102.50;66.00;;;;;;;;5039445;28;51156;-45
2023/02/18 13:11:27;;;;;;;;;119.25;89.00;;;;;;;;5039834;28;51761;-44
2023/02/18 13:14:21;;;;;;;;;105.50;73.25;;;;;;;;5037784;28;51184;-45
2023/02/18 13:17:08;;;;;;;;;85.75;57.75;;;;;;;;5039226;28;51215;-43
2023/02/18 13:20:05;;;;;;;;;105.50;82.00;;;;;;;;5039589;28;51100;-47
2023/02/18 13:22:52;;;;;;;;;123.25;88.50;;;;;;;;5038876;28;51154;-45
2023/02/18 13:25:38;;;;;;;;;122.75;86.25;;;;;;;;5039552;28;51132;-45
2023/02/18 13:28:22;;;;;;;;;107.50;76.00;;;;;;;;5037674;28;51146;-47
2023/02/18 13:31:12;;;;;;;;;119.50;87.25;;;;;;;;5039072;28;51179;-47
2023/02/18 13:34:03;;;;;;;;;134.00;90.50;;;;;;;;5038270;28;51178;-45
2023/02/18 13:36:57;;;;;;;;;106.50;80.25;;;;;;;;5039090;28;51103;-47
2023/02/18 13:39:53;;;;;;;;;125.50;79.50;;;;;;;;5038856;28;51127;-44
2023/02/18 13:42:37;;;;;;;;;113.25;80.75;;;;;;;;5039159;28;51189;-45
2023/02/18 13:45:23;;;;;;;;;93.25;77.00;;;;;;;;5038221;28;51161;-44
2023/02/18 13:48:27;;;;;;;;;112.50;84.00;;;;;;;;5037837;28;51498;-44
2023/02/18 13:51:16;;;;;;;;;129.75;89.25;;;;;;;;5038828;28;51111;-48
2023/02/18 13:54:16;;;;;;;;;123.25;87.75;;;;;;;;5039042;28;51414;-46
2023/02/18 13:57:05;;;;;;;;;124.25;86.25;;;;;;;;5038139;28;51087;-46
2023/02/18 14:00:01;;;;;;;;;125.50;89.75;;;;;;;;5039239;28;51108;-44
2023/02/18 14:02:59;;;;;;;;;122.75;83.25;;;;;;;;5038573;28;51615;-45
2023/02/18 14:05:43;;;;;;;;;99.25;68.75;;;;;;;;5037929;28;51142;-45
2023/02/18 14:08:30;;;;;;;;;122.00;91.25;;;;;;;;5037426;28;51155;-46
2023/02/18 14:11:14;;;;;;;;;124.00;85.25;;;;;;;;5038765;28;51262;-46
2023/02/18 14:13:59;;;;;;;;;126.50;94.50;;;;;;;;5038580;28;51112;-44
2023/02/18 14:17:02;;;;;;;;;123.00;88.50;;;;;;;;5037721;28;51376;-44
2023/02/18 14:20:01;;;;;;;;;116.50;81.75;;;;;;;;5037421;28;51173;-47
2023/02/18 14:22:50;;;;;;;;;112.50;84.00;;;;;;;;4975998;28;52149;-44
2023/02/18 14:25:38;;;;;;;;;102.25;76.25;;;;;;;;4976087;28;51152;-44
2023/02/18 14:28:37;;;;;;;;;128.50;86.75;;;;;;;;4976186;28;51465;-43
2023/02/18 14:31:21;;;;;;;;;128.00;88.50;;;;;;;;4976899;28;51132;-44
2023/02/18 14:34:23;;;;;;;;;117.50;83.75;;;;;;;;4976540;28;51168;-44
2023/02/18 14:37:07;;;;;;;;;120.00;86.75;;;;;;;;4975388;28;51621;-45
2023/02/18 14:39:59;;;;;;;;;119.25;84.00;;;;;;;;4976271;28;51244;-45
2023/02/18 14:42:49;;;;;;;;;112.75;85.00;;;;;;;;4975862;28;51181;-44
2023/02/18 14:45:33;;;;;;;;;119.00;87.50;;;;;;;;4974475;28;51092;-44
2023/02/18 14:48:18;;;;;;;;;115.50;80.75;;;;;;;;4975043;28;51462;-44
2023/02/18 14:51:02;;;;;;;;;109.75;77.25;;;;;;;;4976012;28;51249;-43
2023/02/18 14:53:46;;;;;;;;;109.00;84.75;;;;;;;;4975916;28;51119;-45
2023/02/18 14:56:51;;;;;;;;;105.75;76.50;;;;;;;;4923345;28;51164;-45
2023/02/18 14:59:38;;;;;;;;;105.25;70.75;;;;;;;;4943723;28;51092;-44
2023/02/18 15:02:26;;;;;;;;;102.75;73.25;;;;;;;;4975267;28;51216;-44
2023/02/18 15:05:12;;;;;;;;;106.25;72.50;;;;;;;;4976023;28;51564;-43
2023/02/18 15:07:56;;;;;;;;;99.50;72.25;;;;;;;;4973782;28;51176;-45
2023/02/18 15:10:42;;;;;;;;;99.25;68.50;;;;;;;;4975649;28;51100;-44
2023/02/18 15:13:28;;;;;;;;;91.25;59.75;;;;;;;;4975509;28;51169;-47
2023/02/18 15:16:18;;;;;;;;;76.75;56.75;;;;;;;;4974142;28;51175;-44
2023/02/18 15:19:05;;;;;;;;;97.25;70.25;;;;;;;;4974231;28;51132;-43
2023/02/18 15:21:50;;;;;;;;;102.75;72.50;;;;;;;;4973498;28;52160;-45
2023/02/18 15:24:36;;;;;;;;;98.50;68.75;;;;;;;;4974989;28;51154;-44
2023/02/18 15:27:25;;;;;;;;;95.50;71.25;;;;;;;;4997227;28;51149;-43
2023/02/18 15:30:09;;;;;;;;;109.00;75.25;;;;;;;;5035228;28;51522;-44
2023/02/18 15:32:55;;;;;;;;;116.50;77.50;;;;;;;;5036582;28;51133;-44
2023/02/18 15:35:40;;;;;;;;;101.75;73.25;;;;;;;;5034539;28;52146;-45
2023/02/18 15:38:25;;;;;;;;;108.50;76.75;;;;;;;;5035136;28;51538;-45
2023/02/18 15:41:14;;;;;;;;;105.50;80.00;;;;;;;;5036487;28;51206;-45
2023/02/18 15:44:01;;;;;;;;;113.00;80.00;;;;;;;;5037498;28;51748;-47
2023/02/18 15:46:46;;;;;;;;;90.50;67.25;;;;;;;;5037236;28;51206;-44
2023/02/18 15:49:30;;;;;;;;;113.75;81.25;;;;;;;;5035423;28;51166;-43
2023/02/18 15:52:14;;;;;;;;;110.75;84.50;;;;;;;;5037038;28;51208;-46
2023/02/18 15:55:06;;;;;;;;;95.75;71.00;;;;;;;;5037301;28;51576;-45
2023/02/18 15:57:50;;;;;;;;;110.50;76.50;;;;;;;;5037880;28;51188;-44
2023/02/18 16:00:38;;;;;;;;;120.00;84.25;;;;;;;;5038990;28;51072;-47
2023/02/18 16:03:24;;;;;;;;;113.25;81.50;;;;;;;;5039167;28;51045;-45
2023/02/18 16:06:08;;;;;;;;;112.50;86.75;;;;;;;;5039462;28;51025;-43
2023/02/18 16:09:02;;;;;;;;;117.75;82.75;;;;;;;;5039263;28;51517;-44
2023/02/18 16:11:48;;;;;;;;;105.50;77.75;;;;;;;;5038066;28;51050;-46
2023/02/18 16:14:34;;;;;;;;;99.25;76.75;;;;;;;;5038885;28;51357;-45
2023/02/18 16:17:20;;;;;;;;;110.00;79.25;;;;;;;;5039219;28;51211;-45
2023/02/18 16:20:14;;;;;;;;;107.75;83.25;;;;;;;;5039091;28;51122;-46
2023/02/18 16:23:00;;;;;;;;;104.75;80.50;;;;;;;;5039054;28;51215;-48
2023/02/18 16:25:47;;;;;;;;;103.25;78.25;;;;;;;;5038992;28;51012;-45
2023/02/18 16:28:32;;;;;;;;;101.75;75.75;;;;;;;;5038942;28;51220;-46
2023/02/18 16:31:16;;;;;;;;;97.75;69.00;;;;;;;;5043239;28;51138;-44
2023/02/18 16:34:00;;;;;;;;;105.50;73.75;;;;;;;;5043118;28;51950;-46
2023/02/18 16:39:50;;;;;;;;;124.50;83.00;;;;;;;;5042606;28;51853;-45
2023/02/18 16:42:34;;;;;;;;;102.75;71.25;;;;;;;;5043019;28;51178;-44
2023/02/18 16:45:19;;;;;;;;;113.25;81.50;;;;;;;;5043062;28;51572;-43
2023/02/18 16:48:04;;;;;;;;;120.25;82.00;;;;;;;;5042492;28;51164;-43
2023/02/18 16:50:50;;;;;;;;;116.50;78.00;;;;;;;;5042657;28;51040;-45
2023/02/18 16:53:34;;;;;;;;;108.00;80.25;;;;;;;;5042837;28;51457;-45